Time;durP1;ratioP1;P1;durP2;ratioP2;P2;SDS_P1;SDS_P2;PMS_P1;PMS_P2;Temp;Humidity;BMP_temperature;BMP_pressure;BME280_temperature;BME280_humidity;BME280_pressure;Samples;Min_cycle;Max_cycle;Signal;HPM_P1;HPM_P2
2021/08/25 09:43:38;;;;;;;7.55;5.32;;;20.20;88.30;;;;;;12033595;28;20456;-64
2021/08/25 09:49:25;;;;;;;15.85;5.03;;;20.50;87.20;;;;;;11984390;28;20100;-64
2021/08/25 09:55:13;;;;;;;9.48;4.78;;;21.20;86.00;;;;;;11990082;28;20045;-64
2021/08/25 10:07:04;;;;;;;31.42;20.80;;;21.90;81.10;;;;;;11982213;28;20076;-63
2021/08/25 10:12:52;;;;;;;12.02;5.00;;;22.20;81.70;;;;;;11983665;28;20059;-64
2021/08/25 10:18:41;;;;;;;13.05;4.53;;;22.40;82.00;;;;;;11982598;28;20436;-64
2021/08/25 10:24:49;;;;;;;14.85;4.35;;;22.30;80.00;;;;;;11988665;28;20049;-64
2021/08/25 10:30:54;;;;;;;12.93;4.90;;;22.40;80.00;;;;;;11988373;28;20052;-63
2021/08/25 10:36:43;;;;;;;10.63;4.90;;;22.40;78.60;;;;;;11981030;28;20049;-64
2021/08/25 10:42:51;;;;;;;10.63;4.43;;;22.60;78.10;;;;;;11979793;28;20079;-64
2021/08/25 10:48:40;;;;;;;7.63;4.18;;;22.50;79.10;;;;;;11986168;28;20110;-65
2021/08/25 10:54:28;;;;;;;8.45;4.30;;;22.80;77.80;;;;;;11953561;28;20053;-65
2021/08/25 11:00:16;;;;;;;10.98;4.30;;;23.00;76.20;;;;;;11960218;28;20056;-64
2021/08/25 11:06:03;;;;;;;5.70;4.18;;;23.40;76.20;;;;;;11947987;28;20464;-66
2021/08/25 11:11:54;;;;;;;8.23;4.40;;;23.40;74.00;;;;;;11950523;28;20413;-65
2021/08/25 11:17:42;;;;;;;6.63;4.38;;;23.70;74.20;;;;;;11953033;28;20041;-65
2021/08/25 11:23:52;;;;;;;13.50;6.43;;;23.90;71.10;;;;;;11941356;28;20069;-65
2021/08/25 11:29:41;;;;;;;16.35;8.77;;;23.80;71.80;;;;;;11950976;28;20056;-65
2021/08/25 11:35:31;;;;;;;8.70;4.55;;;23.90;72.20;;;;;;11949195;28;20097;-65
2021/08/25 11:41:17;;;;;;;7.93;4.70;;;24.20;72.00;;;;;;11937597;28;20053;-66
2021/08/25 11:47:18;;;;;;;10.38;4.57;;;24.20;70.00;;;;;;11948971;28;20057;-66
2021/08/25 11:53:12;;;;;;;8.13;4.78;;;24.40;70.30;;;;;;11944646;28;20057;-64
2021/08/25 11:59:09;;;;;;;9.23;4.88;;;24.50;69.10;;;;;;11952999;28;20057;-65
2021/08/25 12:04:57;;;;;;;8.13;4.93;;;24.60;67.60;;;;;;11945149;28;20069;-64
2021/08/25 12:10:46;;;;;;;10.55;4.28;;;24.70;69.40;;;;;;11948985;28;20049;-65
2021/08/25 12:16:33;;;;;;;6.85;4.45;;;24.80;67.40;;;;;;11949452;28;20066;-65
2021/08/25 12:22:25;;;;;;;7.22;4.68;;;24.90;67.50;;;;;;11946568;28;20059;-65
2021/08/25 12:28:12;;;;;;;7.20;4.60;;;25.00;66.00;;;;;;11949840;28;20053;-65
2021/08/25 12:34:07;;;;;;;9.43;4.30;;;25.20;66.80;;;;;;11947135;28;20044;-65
2021/08/25 12:39:55;;;;;;;7.40;3.63;;;25.40;65.60;;;;;;11945970;28;20065;-64
2021/08/25 12:45:42;;;;;;;6.05;4.35;;;25.50;63.90;;;;;;11939217;28;20060;-65
2021/08/25 12:51:29;;;;;;;8.70;4.53;;;25.60;63.10;;;;;;11947507;28;20057;-65
2021/08/25 12:57:17;;;;;;;5.15;3.80;;;25.60;64.40;;;;;;11942721;28;20056;-65
2021/08/25 13:03:05;;;;;;;6.47;3.97;;;25.70;62.90;;;;;;11936003;28;20041;-65
2021/08/25 13:08:51;;;;;;;7.30;4.30;;;25.90;62.60;;;;;;11948923;28;20053;-65
2021/08/25 13:14:40;;;;;;;5.63;3.92;;;26.00;60.80;;;;;;11971245;28;20053;-66
2021/08/25 13:20:26;;;;;;;5.80;4.00;;;26.20;62.30;;;;;;11971156;28;20041;-66
2021/08/25 13:26:15;;;;;;;7.47;4.43;;;26.30;62.40;;;;;;11971438;28;20044;-66
2021/08/25 13:32:04;;;;;;;8.43;4.05;;;26.50;61.50;;;;;;11961150;28;20151;-66
2021/08/25 13:37:51;;;;;;;7.15;4.07;;;26.60;61.50;;;;;;11949649;28;20053;-63
2021/08/25 13:43:38;;;;;;;16.33;4.82;;;26.60;59.80;;;;;;11947664;28;20053;-62
2021/08/25 13:49:26;;;;;;;5.88;4.60;;;26.60;59.70;;;;;;11939707;28;20049;-62
2021/08/25 13:55:13;;;;;;;7.88;4.03;;;26.80;60.80;;;;;;11949210;28;20049;-62
2021/08/25 14:01:00;;;;;;;5.18;3.80;;;26.80;61.10;;;;;;11944097;28;20056;-62
2021/08/25 14:06:48;;;;;;;7.55;3.88;;;26.80;58.80;;;;;;11925680;28;20048;-62
2021/08/25 14:12:35;;;;;;;8.80;4.25;;;27.00;59.10;;;;;;11964166;28;20049;-61
2021/08/25 14:18:22;;;;;;;5.28;3.83;;;27.10;58.10;;;;;;11966911;28;20045;-62
2021/08/25 14:24:11;;;;;;;5.85;4.13;;;27.00;59.20;;;;;;11967125;28;20037;-62
2021/08/25 14:29:57;;;;;;;5.13;4.28;;;27.20;59.80;;;;;;11975108;28;20041;-62
2021/08/25 14:35:44;;;;;;;13.73;4.80;;;27.20;57.70;;;;;;11975496;28;20297;-62
2021/08/25 14:41:33;;;;;;;5.25;4.15;;;27.20;58.60;;;;;;11959619;28;20046;-62
2021/08/25 14:47:20;;;;;;;8.95;4.32;;;27.30;58.80;;;;;;11942650;28;20532;-62
2021/08/25 14:53:08;;;;;;;5.40;4.03;;;27.30;58.50;;;;;;11940199;28;20102;-63
2021/08/25 14:58:56;;;;;;;5.47;4.60;;;27.40;57.60;;;;;;11946784;28;20604;-62
2021/08/25 15:04:43;;;;;;;11.52;7.13;;;27.40;57.60;;;;;;11971700;28;20041;-64
2021/08/25 15:10:30;;;;;;;6.13;4.10;;;27.50;57.70;;;;;;11974214;28;20728;-72
2021/08/25 15:16:26;;;;;;;9.55;7.28;;;27.30;58.90;;;;;;11974012;28;20054;-66
2021/08/25 15:22:13;;;;;;;5.82;4.30;;;27.40;58.80;;;;;;11973989;28;20056;-66
2021/08/25 15:28:00;;;;;;;6.03;4.38;;;27.50;57.00;;;;;;11973830;28;20099;-67
2021/08/25 15:33:48;;;;;;;8.13;4.72;;;27.30;56.60;;;;;;11973088;28;20056;-66
2021/08/25 15:39:36;;;;;;;8.40;4.28;;;27.20;57.20;;;;;;11967321;28;20072;-67
2021/08/25 15:45:22;;;;;;;5.47;4.53;;;27.30;58.20;;;;;;11951165;28;20048;-66
2021/08/25 15:51:11;;;;;;;7.72;4.78;;;27.60;58.20;;;;;;11955314;28;20095;-67
2021/08/25 15:56:58;;;;;;;8.30;4.68;;;27.70;57.10;;;;;;11971383;28;20519;-67
2021/08/25 16:02:44;;;;;;;5.95;4.47;;;28.00;56.60;;;;;;11971737;28;20041;-68
2021/08/25 16:08:33;;;;;;;10.60;4.35;;;28.20;57.00;;;;;;11972000;28;20041;-67
2021/08/25 16:14:20;;;;;;;10.00;4.70;;;28.50;57.00;;;;;;11971709;28;20058;-68
2021/08/25 16:20:08;;;;;;;7.35;5.13;;;28.90;55.70;;;;;;11968841;28;20448;-68
2021/08/25 16:25:56;;;;;;;13.07;5.15;;;30.30;53.50;;;;;;11970972;28;20046;-66
2021/08/25 16:31:43;;;;;;;29.33;24.33;;;32.80;48.80;;;;;;11947517;28;20049;-65
2021/08/25 16:37:30;;;;;;;9.27;5.30;;;35.30;45.80;;;;;;11958925;28;20049;-62
2021/08/25 16:43:18;;;;;;;6.18;4.35;;;36.80;43.40;;;;;;11918013;28;20054;-72
2021/08/25 16:49:05;;;;;;;4.82;3.95;;;37.60;41.00;;;;;;11931672;28;20048;-65
2021/08/25 16:54:52;;;;;;;5.72;4.35;;;37.90;41.10;;;;;;11937784;28;20049;-66
2021/08/25 17:00:40;;;;;;;7.75;4.57;;;38.20;40.00;;;;;;11941498;28;20057;-54
2021/08/25 17:06:27;;;;;;;5.72;4.13;;;38.30;39.80;;;;;;11944021;28;20657;-67
2021/08/25 17:12:14;;;;;;;5.35;4.22;;;38.60;39.70;;;;;;11951322;28;20064;-52
2021/08/25 17:18:03;;;;;;;6.55;4.47;;;38.40;39.40;;;;;;11949691;28;20066;-55
2021/08/25 17:23:50;;;;;;;13.13;4.18;;;38.30;39.80;;;;;;11926462;28;20045;-71
2021/08/25 17:29:37;;;;;;;6.80;3.92;;;38.20;39.50;;;;;;11934496;28;20045;-53
2021/08/25 17:35:26;;;;;;;5.15;3.92;;;37.90;40.10;;;;;;11941854;28;20052;-58
2021/08/25 17:41:12;;;;;;;9.15;4.20;;;37.50;40.60;;;;;;11926193;28;20432;-72
2021/08/25 17:46:59;;;;;;;30.88;22.13;;;36.30;41.80;;;;;;11924494;28;20053;-60
2021/08/25 17:52:48;;;;;;;8.55;4.38;;;34.20;45.50;;;;;;11930636;28;20053;-62
2021/08/25 17:58:35;;;;;;;6.18;4.18;;;31.70;48.80;;;;;;11940652;28;20042;-57
2021/08/25 18:04:23;;;;;;;7.82;4.47;;;29.90;53.10;;;;;;11939667;28;20069;-58
2021/08/25 18:10:12;;;;;;;28.35;19.73;;;28.70;54.40;;;;;;11948180;28;20520;-57
2021/08/25 18:15:59;;;;;;;430.13;329.50;;;27.80;56.10;;;;;;11945905;28;20049;-58
2021/08/25 18:21:46;;;;;;;8.68;5.55;;;27.30;57.20;;;;;;11956105;28;20049;-58
2021/08/25 18:27:35;;;;;;;5.85;4.70;;;26.90;58.20;;;;;;11962768;28;20051;-55
2021/08/25 18:33:22;;;;;;;17.88;13.10;;;26.60;58.50;;;;;;11962526;28;20060;-58
2021/08/25 18:39:09;;;;;;;7.75;4.72;;;26.30;60.00;;;;;;11967127;28;20042;-56
2021/08/25 18:44:57;;;;;;;13.02;7.63;;;26.10;59.30;;;;;;11928037;28;20057;-58
2021/08/25 18:50:44;;;;;;;43.70;27.83;;;25.90;59.90;;;;;;11917983;28;20046;-58
2021/08/25 18:56:31;;;;;;;7.35;5.10;;;25.70;60.00;;;;;;11911338;28;20057;-57
2021/08/25 19:02:19;;;;;;;20.48;12.02;;;25.60;60.60;;;;;;11915167;28;20095;-52
2021/08/25 19:08:06;;;;;;;18.58;13.43;;;25.30;61.80;;;;;;11918408;28;20394;-47
2021/08/25 19:13:53;;;;;;;10.48;6.07;;;25.20;63.00;;;;;;11911741;28;20082;-52
2021/08/25 19:19:42;;;;;;;91.88;76.18;;;25.10;63.60;;;;;;11928625;28;20052;-50
2021/08/25 19:25:28;;;;;;;23.85;15.80;;;25.00;64.80;;;;;;11922420;28;20050;-50
2021/08/25 19:31:15;;;;;;;6.82;4.63;;;24.80;64.60;;;;;;11917596;28;20057;-54
2021/08/25 19:37:04;;;;;;;23.42;17.15;;;24.80;64.50;;;;;;11939222;28;20046;-51
2021/08/25 19:42:51;;;;;;;100.25;66.95;;;24.80;64.60;;;;;;11926108;28;20058;-54
2021/08/25 19:48:38;;;;;;;12.70;7.50;;;24.70;65.20;;;;;;11920700;28;20054;-50
2021/08/25 19:54:26;;;;;;;19.52;5.60;;;24.60;66.70;;;;;;11931837;28;20517;-53
2021/08/25 20:00:21;;;;;;;10.52;5.13;;;24.60;67.60;;;;;;11949670;28;20564;-51
2021/08/25 20:06:09;;;;;;;19.48;13.60;;;24.50;68.10;;;;;;11951806;28;20469;-47
2021/08/25 20:11:57;;;;;;;55.65;32.80;;;24.40;68.00;;;;;;11950597;28;20152;-53
2021/08/25 20:17:44;;;;;;;9.85;6.22;;;24.30;68.80;;;;;;11946112;28;20045;-52
2021/08/25 20:23:31;;;;;;;10.98;6.00;;;24.20;68.70;;;;;;11957383;28;20053;-50
2021/08/25 20:29:19;;;;;;;41.55;30.10;;;24.20;69.10;;;;;;11958925;28;20060;-49
2021/08/25 20:35:07;;;;;;;10.90;5.63;;;24.10;68.90;;;;;;11966736;28;20037;-48
2021/08/25 20:40:54;;;;;;;11.27;5.30;;;24.00;67.60;;;;;;11944041;28;20060;-52
2021/08/25 20:46:42;;;;;;;16.65;5.50;;;24.00;66.90;;;;;;11929065;28;20049;-47
2021/08/25 20:52:29;;;;;;;25.95;15.82;;;24.00;67.00;;;;;;11930728;28;20509;-48
2021/08/25 20:58:16;;;;;;;18.60;8.43;;;24.00;67.10;;;;;;11930534;28;20041;-45
2021/08/25 21:04:05;;;;;;;12.77;7.20;;;23.90;66.90;;;;;;11934979;28;20068;-50
2021/08/25 21:09:51;;;;;;;13.80;5.65;;;23.90;67.70;;;;;;11945204;28;20045;-52
2021/08/25 21:15:38;;;;;;;9.73;5.07;;;23.90;69.20;;;;;;11953559;28;20041;-50
2021/08/25 21:21:26;;;;;;;10.45;5.75;;;23.80;69.20;;;;;;11954605;28;20068;-51
2021/08/25 21:27:13;;;;;;;11.88;5.40;;;23.70;70.00;;;;;;11955147;28;20050;-57
2021/08/25 21:33:00;;;;;;;12.48;5.50;;;23.60;68.60;;;;;;11954460;28;20049;-52
2021/08/25 21:38:48;;;;;;;15.30;5.65;;;23.70;69.00;;;;;;11958589;28;20042;-51
2021/08/25 21:44:35;;;;;;;13.45;5.78;;;23.60;68.50;;;;;;11929566;28;20049;-50
2021/08/25 21:50:22;;;;;;;192.88;138.23;;;23.50;68.80;;;;;;11937059;28;20069;-53
2021/08/25 21:56:12;;;;;;;9.82;6.10;;;23.50;68.80;;;;;;11948211;28;20037;-52
2021/08/25 22:01:59;;;;;;;11.38;5.25;;;23.50;68.50;;;;;;11947628;28;20080;-55
2021/08/25 22:07:46;;;;;;;10.15;5.50;;;23.50;68.30;;;;;;11955172;28;20041;-53
2021/08/25 22:13:34;;;;;;;10.55;5.45;;;23.50;68.40;;;;;;11943356;28;20516;-53
2021/08/25 22:19:22;;;;;;;15.40;5.15;;;23.50;68.50;;;;;;11953328;28;20060;-56
2021/08/25 22:25:10;;;;;;;12.38;5.40;;;23.40;69.20;;;;;;11958318;28;20049;-52
